createdAt,value
2019-06-26T00:00:44.307Z,10.65
2019-06-26T00:03:13.166Z,10.78
2019-06-26T00:05:41.820Z,10.95
2019-06-26T00:08:10.355Z,11.15
2019-06-26T00:10:39.240Z,12.37
2019-06-26T00:13:07.811Z,10.32
2019-06-26T00:15:36.734Z,11.48
2019-06-26T00:18:05.308Z,11.53
2019-06-26T00:20:33.864Z,10.88
2019-06-26T00:23:02.630Z,10.72
2019-06-26T00:25:31.176Z,10.90
2019-06-26T00:27:59.746Z,11.00
2019-06-26T00:30:28.698Z,12.15
2019-06-26T00:32:57.557Z,11.30
2019-06-26T00:35:26.111Z,11.85
2019-06-26T00:37:54.675Z,12.15
2019-06-26T00:40:23.522Z,12.18
2019-06-26T00:42:52.092Z,11.68
2019-06-26T00:45:20.573Z,12.35
2019-06-26T00:47:49.210Z,12.53
2019-06-26T00:50:18.396Z,11.88
2019-06-26T00:52:47.294Z,11.48
2019-06-26T00:55:15.831Z,11.90
2019-06-26T00:57:44.779Z,13.30
2019-06-26T01:00:13.975Z,12.88
2019-06-26T01:02:42.537Z,12.07
2019-06-26T01:05:12.828Z,12.10
2019-06-26T01:07:41.466Z,12.23
2019-06-26T01:10:11.812Z,13.10
2019-06-26T01:12:40.387Z,13.60
2019-06-26T01:15:10.258Z,12.58
2019-06-26T01:17:38.757Z,12.18
2019-06-26T01:20:08.308Z,12.63
2019-06-26T01:22:37.214Z,13.45
2019-06-26T01:25:06.574Z,13.85
2019-06-26T01:27:35.134Z,13.65
2019-06-26T01:30:07.489Z,14.73
2019-06-26T01:32:36.469Z,15.15
2019-06-26T01:35:08.544Z,14.40
2019-06-26T01:37:37.121Z,13.00
2019-06-26T01:40:10.199Z,14.05
2019-06-26T01:42:38.760Z,13.75
2019-06-26T01:45:07.481Z,14.98
2019-06-26T01:47:36.098Z,13.78
2019-06-26T01:50:06.870Z,14.43
2019-06-26T01:52:35.819Z,14.20
2019-06-26T01:55:07.710Z,13.75
2019-06-26T01:57:36.193Z,15.58
2019-06-26T02:00:08.132Z,13.38
2019-06-26T02:02:36.885Z,13.40
2019-06-26T02:05:07.407Z,13.58
2019-06-26T02:07:36.122Z,13.28
2019-06-26T02:10:08.678Z,13.22
2019-06-26T02:12:37.227Z,12.93
2019-06-26T02:15:07.236Z,14.30
2019-06-26T02:17:35.773Z,14.30
2019-06-26T02:20:07.277Z,15.20
2019-06-26T02:22:36.171Z,13.80
2019-06-26T02:25:05.891Z,12.93
2019-06-26T02:27:34.565Z,13.65
2019-06-26T02:30:03.794Z,13.30
2019-06-26T02:32:32.334Z,13.20
2019-06-26T02:35:01.283Z,15.15
2019-06-26T02:37:30.162Z,15.43
2019-06-26T02:39:58.737Z,15.13
2019-06-26T02:42:27.280Z,14.40
2019-06-26T02:44:55.841Z,13.35
2019-06-26T02:47:24.717Z,13.32
2019-06-26T02:49:53.307Z,14.47
2019-06-26T02:52:22.202Z,14.18
2019-06-26T02:54:50.773Z,13.68
2019-06-26T02:57:19.486Z,14.35
2019-06-26T02:59:48.379Z,15.32
2019-06-26T03:02:16.920Z,14.30
2019-06-26T03:04:45.860Z,14.58
2019-06-26T03:07:14.401Z,14.80
2019-06-26T03:09:42.982Z,15.10
2019-06-26T03:12:11.534Z,15.10
2019-06-26T03:14:40.125Z,15.75
2019-06-26T03:17:12.457Z,15.75
2019-06-26T03:19:41.385Z,15.78
2019-06-26T03:22:10.195Z,14.87
2019-06-26T03:24:38.750Z,14.35
2019-06-26T03:27:09.116Z,14.75
2019-06-26T03:29:37.890Z,13.78
2019-06-26T03:32:06.787Z,14.38
2019-06-26T03:34:35.680Z,14.13
2019-06-26T03:37:04.315Z,14.03
2019-06-26T03:39:33.154Z,13.55
2019-06-26T03:42:01.786Z,13.80
2019-06-26T03:44:30.337Z,13.50
2019-06-26T03:46:59.232Z,13.45
2019-06-26T03:49:28.121Z,14.38
2019-06-26T03:51:56.694Z,13.50
2019-06-26T03:54:25.605Z,12.70
2019-06-26T03:56:54.179Z,13.30
2019-06-26T03:59:22.719Z,12.35
2019-06-26T04:01:51.221Z,12.53
2019-06-26T04:04:19.766Z,11.90
2019-06-26T04:06:48.332Z,11.80
2019-06-26T04:09:16.929Z,12.73
2019-06-26T04:11:45.449Z,11.73
2019-06-26T04:14:13.994Z,11.60
2019-06-26T04:16:44.551Z,11.03
2019-06-26T04:19:13.081Z,11.48
2019-06-26T04:21:42.026Z,11.30
2019-06-26T04:24:10.563Z,12.10
2019-06-26T04:26:39.044Z,11.22
2019-06-26T04:29:07.519Z,11.30
2019-06-26T04:31:36.060Z,11.15
2019-06-26T04:34:04.867Z,10.78
2019-06-26T04:36:33.770Z,10.40
2019-06-26T04:39:02.337Z,10.35
2019-06-26T04:41:30.808Z,11.30
2019-06-26T04:43:59.307Z,11.57
2019-06-26T04:46:27.848Z,11.80
2019-06-26T04:48:56.407Z,11.40
2019-06-26T04:51:24.952Z,11.08
2019-06-26T04:53:55.686Z,11.03
2019-06-26T04:56:23.635Z,10.80
2019-06-26T04:58:52.589Z,10.98
2019-06-26T05:01:21.299Z,9.78
2019-06-26T05:03:49.868Z,10.32
2019-06-26T05:06:18.418Z,10.58
2019-06-26T05:08:46.989Z,10.70
2019-06-26T05:11:15.543Z,9.63
2019-06-26T05:13:44.364Z,10.45
2019-06-26T05:16:15.826Z,10.90
2019-06-26T05:18:43.437Z,11.00
2019-06-26T05:21:11.985Z,11.03
2019-06-26T05:23:40.549Z,10.70
2019-06-26T05:26:09.017Z,10.50
2019-06-26T05:28:37.513Z,11.22
2019-06-26T05:31:06.055Z,10.98
2019-06-26T05:33:34.550Z,10.65
2019-06-26T05:36:03.462Z,10.82
2019-06-26T05:38:32.027Z,10.82
2019-06-26T05:41:00.577Z,10.50
2019-06-26T05:43:29.142Z,9.73
2019-06-26T05:45:57.738Z,9.43
2019-06-26T05:48:26.239Z,10.40
2019-06-26T05:50:54.805Z,10.63
2019-06-26T05:53:23.608Z,9.68
2019-06-26T05:55:52.212Z,10.60
2019-06-26T05:58:20.729Z,10.68
2019-06-26T06:00:49.652Z,11.95
2019-06-26T06:03:18.544Z,10.43
2019-06-26T06:05:47.119Z,10.60
2019-06-26T06:08:16.032Z,10.78
2019-06-26T06:10:44.936Z,10.35
2019-06-26T06:13:13.471Z,10.60
2019-06-26T06:15:41.959Z,9.90
2019-06-26T06:18:16.355Z,9.95
2019-06-26T06:20:45.218Z,8.58
2019-06-26T06:23:13.424Z,7.65
2019-06-26T06:25:41.993Z,6.75
2019-06-26T06:28:10.876Z,7.92
2019-06-26T06:30:39.375Z,7.65
2019-06-26T06:33:08.258Z,8.05
2019-06-26T06:35:36.862Z,7.83
2019-06-26T06:38:05.461Z,7.35
2019-06-26T06:40:33.954Z,7.75
2019-06-26T06:43:02.420Z,7.25
2019-06-26T06:45:31.125Z,6.95
2019-06-26T06:47:59.586Z,7.75
2019-06-26T06:50:28.077Z,9.75
2019-06-26T06:52:56.690Z,11.60
2019-06-26T06:55:25.553Z,8.73
2019-06-26T06:57:54.092Z,8.10
2019-06-26T07:00:24.389Z,7.90
2019-06-26T07:02:53.260Z,8.15
2019-06-26T07:05:21.851Z,8.58
2019-06-26T07:07:50.771Z,8.68
2019-06-26T07:10:19.287Z,8.88
2019-06-26T07:12:47.849Z,8.95
2019-06-26T07:15:18.466Z,8.03
2019-06-26T07:17:47.023Z,7.85
2019-06-26T07:20:15.643Z,7.92
2019-06-26T07:22:44.199Z,8.30
2019-06-26T07:25:13.381Z,8.38
2019-06-26T07:27:42.316Z,8.05
2019-06-26T07:30:11.199Z,8.38
2019-06-26T07:32:39.763Z,7.42
2019-06-26T07:35:08.567Z,8.15
2019-06-26T07:37:37.139Z,8.95
2019-06-26T07:40:08.684Z,8.15
2019-06-26T07:42:37.170Z,8.00
2019-06-26T07:45:07.163Z,8.70
2019-06-26T07:47:43.289Z,7.85
2019-06-26T07:50:07.046Z,8.30
2019-06-26T07:52:35.628Z,8.03
2019-06-26T07:55:06.753Z,7.83
2019-06-26T07:57:35.583Z,6.72
2019-06-26T08:00:06.165Z,6.95
2019-06-26T08:02:34.749Z,7.42
2019-06-26T08:05:04.147Z,6.55
2019-06-26T08:07:32.706Z,7.03
2019-06-26T08:10:01.676Z,6.67
2019-06-26T08:12:30.380Z,6.58
2019-06-26T08:14:58.854Z,5.85
2019-06-26T08:17:27.417Z,5.42
2019-06-26T08:19:55.888Z,4.78
2019-06-26T08:22:24.377Z,4.33
2019-06-26T08:24:52.924Z,4.97
2019-06-26T08:27:21.566Z,4.62
2019-06-26T08:29:50.084Z,3.37
2019-06-26T08:32:18.579Z,3.47
2019-06-26T08:34:47.410Z,3.40
2019-06-26T08:37:15.964Z,3.40
2019-06-26T08:39:44.927Z,4.20
2019-06-26T08:42:13.548Z,4.05
2019-06-26T08:44:42.109Z,4.08
2019-06-26T08:47:10.573Z,3.52
2019-06-26T08:49:39.488Z,5.03
2019-06-26T08:52:08.228Z,4.40
2019-06-26T08:54:36.786Z,4.83
2019-06-26T08:57:05.250Z,3.42
2019-06-26T08:59:33.807Z,4.08
2019-06-26T09:02:02.349Z,3.65
2019-06-26T09:04:30.882Z,4.00
2019-06-26T09:06:59.438Z,3.92
2019-06-26T09:09:27.989Z,3.70
2019-06-26T09:11:56.528Z,3.92
2019-06-26T09:14:25.102Z,4.30
2019-06-26T09:16:53.704Z,5.30
2019-06-26T09:19:22.261Z,4.05
2019-06-26T09:21:51.103Z,3.90
2019-06-26T09:24:19.667Z,4.25
2019-06-26T09:26:48.204Z,4.17
2019-06-26T09:29:17.184Z,4.40
2019-06-26T09:31:45.729Z,4.35
2019-06-26T09:34:14.286Z,4.17
2019-06-26T09:36:43.044Z,3.98
2019-06-26T09:39:11.940Z,4.62
2019-06-26T09:41:40.489Z,4.42
2019-06-26T09:44:09.039Z,4.72
2019-06-26T09:46:37.585Z,4.10
2019-06-26T09:49:06.601Z,4.12
2019-06-26T09:51:35.136Z,4.47
2019-06-26T09:54:04.089Z,4.30
2019-06-26T09:56:32.621Z,4.42
2019-06-26T09:59:01.264Z,5.42
2019-06-26T10:01:30.160Z,4.10
2019-06-26T10:03:58.945Z,4.70
2019-06-26T10:06:27.476Z,3.80
2019-06-26T10:08:55.971Z,4.28
2019-06-26T10:11:24.522Z,3.90
2019-06-26T10:13:53.078Z,4.00
2019-06-26T10:16:21.620Z,4.60
2019-06-26T10:18:50.178Z,4.33
2019-06-26T10:21:18.720Z,4.78
2019-06-26T10:23:48.620Z,4.42
2019-06-26T10:26:17.184Z,4.40
2019-06-26T10:28:46.056Z,4.33
2019-06-26T10:31:18.373Z,4.75
2019-06-26T10:33:46.261Z,3.87
2019-06-26T10:36:15.202Z,5.00
2019-06-26T10:38:44.201Z,4.03
2019-06-26T10:41:13.092Z,4.90
2019-06-26T10:43:41.560Z,4.42
2019-06-26T10:46:10.123Z,4.33
2019-06-26T10:48:38.662Z,4.33
2019-06-26T10:51:07.594Z,4.12
2019-06-26T10:53:36.088Z,4.10
2019-06-26T10:56:04.780Z,4.15
2019-06-26T10:58:33.335Z,4.40
2019-06-26T11:01:01.948Z,5.08
2019-06-26T11:03:30.802Z,4.42
2019-06-26T11:05:59.590Z,4.40
2019-06-26T11:08:28.484Z,5.20
2019-06-26T11:10:57.058Z,4.75
2019-06-26T11:13:25.595Z,6.72
2019-06-26T11:15:54.153Z,4.33
2019-06-26T11:18:22.711Z,5.20
2019-06-26T11:20:51.270Z,4.75
2019-06-26T11:23:19.829Z,4.20
2019-06-26T11:25:48.380Z,4.12
2019-06-26T11:28:16.912Z,4.12
2019-06-26T11:30:45.414Z,4.80
2019-06-26T11:33:13.956Z,4.67
2019-06-26T11:35:42.519Z,4.65
2019-06-26T11:38:10.987Z,4.50
2019-06-26T11:40:39.486Z,4.78
2019-06-26T11:43:08.208Z,4.83
2019-06-26T11:45:36.982Z,4.78
2019-06-26T11:48:05.867Z,4.95
2019-06-26T11:50:34.424Z,5.05
2019-06-26T11:53:03.192Z,4.95
2019-06-26T11:55:32.072Z,4.80
2019-06-26T11:58:00.543Z,4.65
2019-06-26T12:00:31.229Z,4.85
2019-06-26T12:02:59.743Z,4.55
2019-06-26T12:05:37.178Z,5.22
2019-06-26T12:08:05.726Z,4.62
2019-06-26T12:10:34.658Z,4.62
2019-06-26T12:13:04.403Z,5.45
2019-06-26T12:15:32.965Z,4.72
2019-06-26T12:18:01.436Z,4.65
2019-06-26T12:20:29.998Z,5.15
2019-06-26T12:22:58.540Z,4.33
2019-06-26T12:25:27.087Z,4.70
2019-06-26T12:27:55.655Z,4.80
2019-06-26T12:30:24.270Z,5.12
2019-06-26T12:33:02.951Z,4.25
2019-06-26T12:35:23.373Z,4.85
2019-06-26T12:37:51.876Z,4.80
2019-06-26T12:40:20.796Z,5.03
2019-06-26T12:42:49.281Z,4.70
2019-06-26T12:45:17.952Z,4.47
2019-06-26T12:47:46.454Z,5.10
2019-06-26T12:50:16.043Z,4.87
2019-06-26T12:52:44.959Z,4.70
2019-06-26T12:55:14.296Z,5.22
2019-06-26T12:57:42.792Z,4.60
2019-06-26T13:00:12.879Z,5.80
2019-06-26T13:02:41.603Z,5.72
2019-06-26T13:05:10.208Z,5.00
2019-06-26T13:07:38.773Z,5.22
2019-06-26T13:10:08.559Z,5.15
2019-06-26T13:12:37.506Z,4.53
2019-06-26T13:15:07.786Z,5.47
2019-06-26T13:17:36.484Z,5.10
2019-06-26T13:20:10.145Z,5.15
2019-06-26T13:22:38.234Z,5.28
2019-06-26T13:25:09.352Z,5.95
2019-06-26T13:27:37.990Z,5.05
2019-06-26T13:30:07.870Z,5.30
2019-06-26T13:32:36.601Z,5.08
2019-06-26T13:35:07.558Z,5.10
2019-06-26T13:37:36.147Z,4.97
2019-06-26T13:40:07.376Z,5.30
2019-06-26T13:42:35.939Z,5.55
2019-06-26T13:45:06.823Z,5.17
2019-06-26T13:47:35.393Z,5.50
2019-06-26T13:50:06.942Z,5.50
2019-06-26T13:52:35.509Z,5.25
2019-06-26T13:55:05.391Z,5.67
2019-06-26T13:57:33.951Z,5.70
2019-06-26T14:00:03.090Z,5.50
2019-06-26T14:02:32.036Z,5.50
2019-06-26T14:05:00.512Z,5.05
2019-06-26T14:07:29.431Z,5.17
2019-06-26T14:09:57.989Z,5.75
2019-06-26T14:12:26.485Z,5.30
2019-06-26T14:14:57.830Z,5.60
2019-06-26T14:17:25.237Z,5.42
2019-06-26T14:19:54.131Z,5.53
2019-06-26T14:22:23.004Z,5.25
2019-06-26T14:24:54.155Z,5.62
2019-06-26T14:27:22.330Z,5.22
2019-06-26T14:29:51.222Z,5.40
2019-06-26T14:32:19.783Z,5.55
2019-06-26T14:34:48.287Z,5.10
2019-06-26T14:37:16.824Z,5.65
2019-06-26T14:39:45.373Z,5.70
2019-06-26T14:42:13.836Z,5.75
2019-06-26T14:44:42.341Z,5.62
2019-06-26T14:47:10.870Z,5.58
2019-06-26T14:49:39.731Z,5.50
2019-06-26T14:52:08.275Z,5.90
2019-06-26T14:54:37.205Z,6.28
2019-06-26T14:57:05.755Z,5.80
2019-06-26T14:59:34.396Z,5.50
2019-06-26T15:02:03.168Z,5.35
2019-06-26T15:04:32.068Z,5.97
2019-06-26T15:07:00.533Z,5.50
2019-06-26T15:09:29.032Z,6.20
2019-06-26T15:11:57.564Z,5.83
2019-06-26T15:14:26.126Z,5.90
2019-06-26T15:16:54.682Z,6.55
2019-06-26T15:19:23.605Z,6.10
2019-06-26T15:21:58.528Z,5.72
2019-06-26T15:24:22.694Z,5.30
2019-06-26T15:26:51.177Z,5.80
2019-06-26T15:29:19.772Z,6.08
2019-06-26T15:31:48.321Z,5.80
2019-06-26T15:34:16.896Z,6.03
2019-06-26T15:36:45.456Z,6.33
2019-06-26T15:39:14.014Z,5.78
2019-06-26T15:41:42.556Z,5.75
2019-06-26T15:44:11.130Z,7.17
2019-06-26T15:46:39.669Z,5.70
2019-06-26T15:49:08.237Z,6.30
2019-06-26T15:51:36.783Z,6.45
2019-06-26T15:54:05.362Z,5.87
2019-06-26T15:56:33.905Z,6.55
2019-06-26T15:59:02.397Z,6.28
2019-06-26T16:01:30.940Z,6.00
2019-06-26T16:03:59.843Z,7.00
2019-06-26T16:06:28.387Z,7.33
2019-06-26T16:08:56.968Z,6.50
2019-06-26T16:11:25.649Z,6.87
2019-06-26T16:13:54.505Z,6.53
2019-06-26T16:16:23.516Z,6.60
2019-06-26T16:18:59.479Z,6.85
2019-06-26T16:21:28.072Z,7.40
2019-06-26T16:23:59.400Z,7.12
2019-06-26T16:26:27.963Z,7.20
2019-06-26T16:28:56.531Z,6.85
2019-06-26T16:31:25.144Z,7.45
2019-06-26T16:33:54.007Z,6.83
2019-06-26T16:36:23.079Z,7.72
2019-06-26T16:38:51.629Z,7.33
2019-06-26T16:41:20.538Z,7.58
2019-06-26T16:43:49.080Z,7.72
2019-06-26T16:46:31.122Z,7.58
2019-06-26T16:48:59.668Z,6.95
2019-06-26T16:51:28.243Z,8.10
2019-06-26T16:53:56.786Z,7.33
2019-06-26T16:56:25.612Z,7.17
2019-06-26T16:58:54.481Z,7.45
2019-06-26T17:01:23.056Z,7.47
2019-06-26T17:03:51.603Z,7.72
2019-06-26T17:06:20.167Z,7.92
2019-06-26T17:08:48.634Z,7.00
2019-06-26T17:11:17.202Z,7.85
2019-06-26T17:13:46.101Z,7.47
2019-06-26T17:16:14.678Z,7.55
2019-06-26T17:18:43.153Z,7.30
2019-06-26T17:21:11.724Z,7.85
2019-06-26T17:23:40.272Z,7.85
2019-06-26T17:26:08.837Z,8.10
2019-06-26T17:28:37.396Z,8.13
2019-06-26T17:31:05.967Z,7.92
2019-06-26T17:33:34.805Z,7.47
2019-06-26T17:36:03.372Z,8.28
2019-06-26T17:38:31.925Z,9.08
2019-06-26T17:41:00.493Z,8.15
2019-06-26T17:43:28.967Z,7.60
2019-06-26T17:45:57.750Z,8.58
2019-06-26T17:48:26.292Z,7.70
2019-06-26T17:50:54.863Z,7.95
2019-06-26T17:53:23.714Z,8.48
2019-06-26T17:55:52.279Z,9.00
2019-06-26T17:58:21.103Z,8.65
2019-06-26T18:00:50.008Z,8.73
2019-06-26T18:03:18.548Z,8.75
2019-06-26T18:05:47.094Z,9.03
2019-06-26T18:08:15.661Z,9.03
2019-06-26T18:10:44.210Z,8.48
2019-06-26T18:13:12.776Z,8.95
2019-06-26T18:15:41.329Z,8.43
2019-06-26T18:18:10.215Z,9.68
2019-06-26T18:20:38.748Z,9.65
2019-06-26T18:23:08.119Z,9.25
2019-06-26T18:25:36.863Z,9.80
2019-06-26T18:28:05.456Z,9.43
2019-06-26T18:30:34.285Z,9.15
2019-06-26T18:33:02.866Z,9.00
2019-06-26T18:35:31.785Z,9.45
2019-06-26T18:38:00.351Z,10.20
2019-06-26T18:40:28.900Z,9.93
2019-06-26T18:42:57.471Z,10.18
2019-06-26T18:45:26.025Z,10.20
2019-06-26T18:47:54.586Z,9.43
2019-06-26T18:50:23.067Z,10.60
2019-06-26T18:52:51.697Z,9.98
2019-06-26T18:55:20.260Z,10.05
2019-06-26T18:57:49.176Z,9.88
2019-06-26T19:00:18.059Z,10.98
2019-06-26T19:02:46.629Z,9.40
2019-06-26T19:05:15.193Z,10.40
2019-06-26T19:07:44.036Z,10.28
2019-06-26T19:10:12.851Z,11.05
2019-06-26T19:12:41.425Z,10.93
2019-06-26T19:15:10.749Z,10.00
2019-06-26T19:17:42.441Z,9.60
2019-06-26T19:20:10.383Z,10.63
2019-06-26T19:22:38.923Z,10.30
2019-06-26T19:25:08.935Z,10.58
2019-06-26T19:27:37.861Z,11.48
2019-06-26T19:30:07.766Z,10.95
2019-06-26T19:32:37.652Z,10.00
2019-06-26T19:35:18.417Z,10.80
2019-06-26T19:37:36.673Z,10.55
2019-06-26T19:40:08.765Z,10.82
2019-06-26T19:42:37.066Z,11.28
2019-06-26T19:45:08.424Z,10.18
2019-06-26T19:47:36.986Z,10.23
2019-06-26T19:50:07.092Z,10.43
2019-06-26T19:52:35.698Z,10.48
2019-06-26T19:55:05.686Z,11.15
2019-06-26T19:57:34.259Z,10.50
2019-06-26T20:00:03.052Z,11.33
2019-06-26T20:02:31.628Z,10.90
2019-06-26T20:05:00.177Z,10.75
2019-06-26T20:07:28.760Z,10.10
2019-06-26T20:09:57.305Z,10.72
2019-06-26T20:12:26.166Z,11.73
2019-06-26T20:14:54.752Z,10.50
2019-06-26T20:17:23.301Z,10.75
2019-06-26T20:19:51.876Z,11.50
2019-06-26T20:22:20.417Z,11.48
2019-06-26T20:24:48.921Z,11.15
2019-06-26T20:27:17.466Z,11.85
2019-06-26T20:29:46.048Z,11.78
2019-06-26T20:32:14.596Z,12.82
2019-06-26T20:34:43.157Z,12.82
2019-06-26T20:37:12.057Z,10.60
2019-06-26T20:39:40.618Z,12.03
2019-06-26T20:42:09.529Z,10.95
2019-06-26T20:44:38.033Z,11.50
2019-06-26T20:47:06.580Z,12.88
2019-06-26T20:49:35.150Z,12.28
2019-06-26T20:52:03.701Z,12.70
2019-06-26T20:54:32.272Z,11.15
2019-06-26T20:57:00.836Z,11.88
2019-06-26T20:59:29.407Z,12.35
2019-06-26T21:01:57.885Z,12.35
2019-06-26T21:04:26.724Z,12.68
2019-06-26T21:06:55.271Z,12.68
2019-06-26T21:09:24.221Z,13.60
2019-06-26T21:11:52.757Z,12.78
2019-06-26T21:14:21.695Z,12.37
2019-06-26T21:16:50.241Z,12.78
2019-06-26T21:19:18.816Z,12.03
2019-06-26T21:21:47.664Z,11.68
2019-06-26T21:24:16.225Z,12.88
2019-06-26T21:26:44.773Z,14.13
2019-06-26T21:29:13.534Z,13.10
2019-06-26T21:31:42.421Z,13.20
2019-06-26T21:34:11.005Z,12.60
2019-06-26T21:36:39.561Z,12.73
2019-06-26T21:39:08.394Z,13.62
2019-06-26T21:41:37.348Z,14.58
2019-06-26T21:44:05.852Z,14.25
2019-06-26T21:46:34.402Z,13.90
2019-06-26T21:49:03.259Z,14.25
2019-06-26T21:51:32.155Z,14.40
2019-06-26T21:54:00.728Z,14.78
2019-06-26T21:56:29.557Z,15.38
2019-06-26T21:58:58.108Z,13.75
2019-06-26T22:01:27.019Z,14.75
2019-06-26T22:03:55.916Z,15.45
2019-06-26T22:06:24.496Z,14.40
2019-06-26T22:08:53.048Z,15.83
2019-06-26T22:11:21.620Z,14.50
2019-06-26T22:13:50.168Z,14.90
2019-06-26T22:16:18.741Z,13.55
2019-06-26T22:18:47.218Z,12.95
2019-06-26T22:21:15.804Z,12.70
2019-06-26T22:23:44.351Z,13.62
2019-06-26T22:26:14.349Z,13.72
2019-06-26T22:28:43.086Z,12.68
2019-06-26T22:31:11.647Z,12.30
2019-06-26T22:33:40.509Z,12.28
2019-06-26T22:36:09.131Z,13.05
2019-06-26T22:38:37.771Z,12.43
2019-06-26T22:41:06.686Z,12.60
2019-06-26T22:43:35.581Z,12.30
2019-06-26T22:46:04.497Z,11.97
2019-06-26T22:48:33.020Z,12.68
2019-06-26T22:51:01.861Z,12.68
2019-06-26T22:53:30.416Z,12.13
2019-06-26T22:56:07.651Z,12.68
2019-06-26T22:58:29.190Z,12.53
2019-06-26T23:00:57.787Z,13.40
2019-06-26T23:03:26.334Z,13.55
2019-06-26T23:05:54.907Z,13.10
2019-06-26T23:08:23.472Z,14.13
2019-06-26T23:10:52.026Z,12.78
2019-06-26T23:13:20.584Z,12.07
2019-06-26T23:15:49.176Z,12.05
2019-06-26T23:18:17.712Z,12.18
2019-06-26T23:20:46.284Z,11.75
2019-06-26T23:23:14.829Z,11.95
2019-06-26T23:25:43.634Z,11.53
2019-06-26T23:28:12.177Z,11.60
2019-06-26T23:30:40.762Z,11.40
2019-06-26T23:33:09.610Z,11.48
2019-06-26T23:35:38.184Z,12.13
2019-06-26T23:38:06.727Z,12.28
2019-06-26T23:40:35.575Z,11.05
2019-06-26T23:43:04.128Z,11.75
2019-06-26T23:45:32.685Z,11.48
2019-06-26T23:48:01.537Z,12.10
2019-06-26T23:50:30.096Z,12.03
2019-06-26T23:52:59.055Z,11.55
2019-06-26T23:55:27.572Z,12.35
2019-06-26T23:57:59.409Z,11.97
